sensor_id;sensor_type;location;lat;lon;timestamp;temperature;humidity
57719;DHT22;43561;50.090;18.522;2023-06-22T00:02:39;19.80;99.90
57719;DHT22;43561;50.090;18.522;2023-06-22T00:12:41;19.80;99.90
57719;DHT22;43561;50.090;18.522;2023-06-22T00:22:44;19.70;99.90
57719;DHT22;43561;50.090;18.522;2023-06-22T00:32:46;19.60;99.90
57719;DHT22;43561;50.090;18.522;2023-06-22T00:42:48;19.60;99.90
57719;DHT22;43561;50.090;18.522;2023-06-22T00:52:56;19.60;99.90
57719;DHT22;43561;50.090;18.522;2023-06-22T01:02:58;19.50;99.90
57719;DHT22;43561;50.090;18.522;2023-06-22T01:13:08;19.50;99.90
57719;DHT22;43561;50.090;18.522;2023-06-22T01:23:26;19.50;99.90
57719;DHT22;43561;50.090;18.522;2023-06-22T01:33:35;19.40;99.90
57719;DHT22;43561;50.090;18.522;2023-06-22T01:43:39;19.40;99.90
57719;DHT22;43561;50.090;18.522;2023-06-22T01:53:42;19.30;99.90
57719;DHT22;43561;50.090;18.522;2023-06-22T02:03:52;19.20;99.90
57719;DHT22;43561;50.090;18.522;2023-06-22T02:13:57;19.10;99.90
57719;DHT22;43561;50.090;18.522;2023-06-22T02:23:59;19.00;99.90
57719;DHT22;43561;50.090;18.522;2023-06-22T02:34:04;19.00;99.90
57719;DHT22;43561;50.090;18.522;2023-06-22T02:44:06;19.00;99.90
57719;DHT22;43561;50.090;18.522;2023-06-22T02:54:08;18.90;99.90
57719;DHT22;43561;50.090;18.522;2023-06-22T03:04:10;19.00;99.90
57719;DHT22;43561;50.090;18.522;2023-06-22T03:14:13;19.00;99.90
57719;DHT22;43561;50.090;18.522;2023-06-22T03:24:15;19.10;99.90
57719;DHT22;43561;50.090;18.522;2023-06-22T03:34:17;19.20;99.90
57719;DHT22;43561;50.090;18.522;2023-06-22T03:44:19;19.60;99.90
57719;DHT22;43561;50.090;18.522;2023-06-22T03:54:21;20.30;99.90
57719;DHT22;43561;50.090;18.522;2023-06-22T04:04:23;21.20;99.90
57719;DHT22;43561;50.090;18.522;2023-06-22T04:14:25;21.30;99.90
57719;DHT22;43561;50.090;18.522;2023-06-22T04:24:27;21.50;99.90
57719;DHT22;43561;50.090;18.522;2023-06-22T04:34:29;22.50;99.90
57719;DHT22;43561;50.090;18.522;2023-06-22T04:44:31;22.00;99.90
57719;DHT22;43561;50.090;18.522;2023-06-22T04:54:35;22.80;99.90
57719;DHT22;43561;50.090;18.522;2023-06-22T05:04:37;22.60;99.90
57719;DHT22;43561;50.090;18.522;2023-06-22T05:14:39;22.30;99.90
57719;DHT22;43561;50.090;18.522;2023-06-22T05:24:42;23.40;99.90
57719;DHT22;43561;50.090;18.522;2023-06-22T05:34:44;23.00;99.90
57719;DHT22;43561;50.090;18.522;2023-06-22T05:44:46;24.20;99.90
57719;DHT22;43561;50.090;18.522;2023-06-22T05:54:48;24.60;99.90
57719;DHT22;43561;50.090;18.522;2023-06-22T06:04:50;24.90;99.90
57719;DHT22;43561;50.090;18.522;2023-06-22T06:14:52;25.30;99.90
57719;DHT22;43561;50.090;18.522;2023-06-22T06:24:57;25.70;99.90
57719;DHT22;43561;50.090;18.522;2023-06-22T06:35:00;26.60;99.90
57719;DHT22;43561;50.090;18.522;2023-06-22T06:45:06;26.60;99.90
57719;DHT22;43561;50.090;18.522;2023-06-22T06:55:10;27.20;99.90
57719;DHT22;43561;50.090;18.522;2023-06-22T07:05:13;26.60;99.90
57719;DHT22;43561;50.090;18.522;2023-06-22T07:15:15;27.60;99.90
57719;DHT22;43561;50.090;18.522;2023-06-22T07:25:17;28.20;99.90
57719;DHT22;43561;50.090;18.522;2023-06-22T07:35:19;27.40;99.90
57719;DHT22;43561;50.090;18.522;2023-06-22T07:45:21;28.30;99.90
57719;DHT22;43561;50.090;18.522;2023-06-22T07:55:23;27.50;99.90
57719;DHT22;43561;50.090;18.522;2023-06-22T08:05:25;28.30;96.30
57719;DHT22;43561;50.090;18.522;2023-06-22T08:15:27;28.00;96.10
57719;DHT22;43561;50.090;18.522;2023-06-22T08:25:29;28.30;94.40
57719;DHT22;43561;50.090;18.522;2023-06-22T08:35:32;28.00;96.70
57719;DHT22;43561;50.090;18.522;2023-06-22T08:45:34;27.40;99.10
57719;DHT22;43561;50.090;18.522;2023-06-22T08:55:40;29.10;91.60
57719;DHT22;43561;50.090;18.522;2023-06-22T09:05:42;29.00;92.30
57719;DHT22;43561;50.090;18.522;2023-06-22T09:15:44;29.00;90.80
57719;DHT22;43561;50.090;18.522;2023-06-22T09:25:45;30.10;78.60
57719;DHT22;43561;50.090;18.522;2023-06-22T09:35:47;28.10;89.70
57719;DHT22;43561;50.090;18.522;2023-06-22T09:45:55;29.00;87.40
57719;DHT22;43561;50.090;18.522;2023-06-22T09:55:57;29.10;78.60
57719;DHT22;43561;50.090;18.522;2023-06-22T10:05:59;29.40;71.60
57719;DHT22;43561;50.090;18.522;2023-06-22T10:16:01;28.90;73.90
57719;DHT22;43561;50.090;18.522;2023-06-22T10:26:03;29.30;69.70
57719;DHT22;43561;50.090;18.522;2023-06-22T10:36:05;29.30;69.50
57719;DHT22;43561;50.090;18.522;2023-06-22T10:46:07;29.30;68.50
57719;DHT22;43561;50.090;18.522;2023-06-22T10:56:09;29.00;67.60
57719;DHT22;43561;50.090;18.522;2023-06-22T11:06:11;30.00;64.80
57719;DHT22;43561;50.090;18.522;2023-06-22T11:16:13;29.70;64.70
57719;DHT22;43561;50.090;18.522;2023-06-22T11:26:15;30.20;61.60
57719;DHT22;43561;50.090;18.522;2023-06-22T11:36:17;31.30;59.70
57719;DHT22;43561;50.090;18.522;2023-06-22T11:46:19;30.80;60.60
57719;DHT22;43561;50.090;18.522;2023-06-22T11:56:21;30.00;59.90
57719;DHT22;43561;50.090;18.522;2023-06-22T12:06:23;29.60;59.70
57719;DHT22;43561;50.090;18.522;2023-06-22T12:16:25;29.50;59.20
57719;DHT22;43561;50.090;18.522;2023-06-22T12:26:27;30.50;58.80
57719;DHT22;43561;50.090;18.522;2023-06-22T12:36:29;30.10;57.20
57719;DHT22;43561;50.090;18.522;2023-06-22T12:46:31;30.40;57.80
57719;DHT22;43561;50.090;18.522;2023-06-22T12:56:33;30.30;57.20
57719;DHT22;43561;50.090;18.522;2023-06-22T13:06:36;30.20;57.60
57719;DHT22;43561;50.090;18.522;2023-06-22T13:16:38;29.50;57.80
57719;DHT22;43561;50.090;18.522;2023-06-22T13:26:40;29.30;57.20
57719;DHT22;43561;50.090;18.522;2023-06-22T13:36:42;29.80;56.60
57719;DHT22;43561;50.090;18.522;2023-06-22T13:46:44;30.40;57.60
57719;DHT22;43561;50.090;18.522;2023-06-22T13:56:46;30.50;56.80
57719;DHT22;43561;50.090;18.522;2023-06-22T14:06:48;30.10;56.80
57719;DHT22;43561;50.090;18.522;2023-06-22T14:16:50;30.60;57.30
57719;DHT22;43561;50.090;18.522;2023-06-22T14:26:52;29.80;56.50
57719;DHT22;43561;50.090;18.522;2023-06-22T14:36:54;30.20;56.30
57719;DHT22;43561;50.090;18.522;2023-06-22T14:46:56;29.70;56.50
57719;DHT22;43561;50.090;18.522;2023-06-22T14:56:58;30.10;57.10
57719;DHT22;43561;50.090;18.522;2023-06-22T15:07:01;30.10;56.70
57719;DHT22;43561;50.090;18.522;2023-06-22T15:17:03;30.00;56.80
57719;DHT22;43561;50.090;18.522;2023-06-22T15:27:05;29.60;56.80
57719;DHT22;43561;50.090;18.522;2023-06-22T15:37:07;29.50;56.80
57719;DHT22;43561;50.090;18.522;2023-06-22T15:47:09;29.90;57.20
57719;DHT22;43561;50.090;18.522;2023-06-22T15:57:11;29.40;56.90
57719;DHT22;43561;50.090;18.522;2023-06-22T16:07:13;29.40;56.40
57719;DHT22;43561;50.090;18.522;2023-06-22T16:17:16;29.40;57.20
57719;DHT22;43561;50.090;18.522;2023-06-22T16:27:18;29.20;57.90
57719;DHT22;43561;50.090;18.522;2023-06-22T16:37:20;29.10;57.80
57719;DHT22;43561;50.090;18.522;2023-06-22T16:47:23;29.10;58.40
57719;DHT22;43561;50.090;18.522;2023-06-22T16:57:25;29.10;58.40
57719;DHT22;43561;50.090;18.522;2023-06-22T17:07:28;28.70;58.40
57719;DHT22;43561;50.090;18.522;2023-06-22T17:17:31;28.60;57.90
57719;DHT22;43561;50.090;18.522;2023-06-22T17:27:35;28.50;58.30
57719;DHT22;43561;50.090;18.522;2023-06-22T17:37:52;28.30;59.00
57719;DHT22;43561;50.090;18.522;2023-06-22T17:47:54;28.20;58.90
57719;DHT22;43561;50.090;18.522;2023-06-22T17:57:57;28.00;59.60
57719;DHT22;43561;50.090;18.522;2023-06-22T18:08:01;27.70;59.90
57719;DHT22;43561;50.090;18.522;2023-06-22T18:18:03;27.50;60.50
57719;DHT22;43561;50.090;18.522;2023-06-22T18:28:07;27.30;61.40
57719;DHT22;43561;50.090;18.522;2023-06-22T18:38:10;27.10;60.90
57719;DHT22;43561;50.090;18.522;2023-06-22T18:48:13;27.10;62.00
57719;DHT22;43561;50.090;18.522;2023-06-22T18:58:17;26.90;63.00
57719;DHT22;43561;50.090;18.522;2023-06-22T19:08:21;26.70;64.10
57719;DHT22;43561;50.090;18.522;2023-06-22T19:18:32;26.40;65.50
57719;DHT22;43561;50.090;18.522;2023-06-22T19:28:48;26.10;68.00
57719;DHT22;43561;50.090;18.522;2023-06-22T19:38:50;26.00;70.20
57719;DHT22;43561;50.090;18.522;2023-06-22T19:48:53;25.70;73.30
57719;DHT22;43561;50.090;18.522;2023-06-22T19:58:55;25.40;78.50
57719;DHT22;43561;50.090;18.522;2023-06-22T20:08:58;25.40;88.60
57719;DHT22;43561;50.090;18.522;2023-06-22T20:19:13;25.10;97.70
57719;DHT22;43561;50.090;18.522;2023-06-22T20:29:33;24.90;99.90
57719;DHT22;43561;50.090;18.522;2023-06-22T20:39:39;24.60;99.90
57719;DHT22;43561;50.090;18.522;2023-06-22T20:49:41;24.50;99.90
57719;DHT22;43561;50.090;18.522;2023-06-22T20:59:44;24.20;99.90
57719;DHT22;43561;50.090;18.522;2023-06-22T21:09:46;24.00;99.90
57719;DHT22;43561;50.090;18.522;2023-06-22T21:19:53;23.90;99.90
57719;DHT22;43561;50.090;18.522;2023-06-22T21:29:55;23.80;99.90
57719;DHT22;43561;50.090;18.522;2023-06-22T21:39:59;23.80;99.90
57719;DHT22;43561;50.090;18.522;2023-06-22T21:50:01;23.70;99.90
57719;DHT22;43561;50.090;18.522;2023-06-22T22:00:03;23.60;99.90
57719;DHT22;43561;50.090;18.522;2023-06-22T22:10:09;23.50;99.90
57719;DHT22;43561;50.090;18.522;2023-06-22T22:20:11;23.30;99.90
57719;DHT22;43561;50.090;18.522;2023-06-22T22:30:14;23.20;99.90
57719;DHT22;43561;50.090;18.522;2023-06-22T22:40:16;23.00;99.90
57719;DHT22;43561;50.090;18.522;2023-06-22T22:50:18;23.00;99.90
57719;DHT22;43561;50.090;18.522;2023-06-22T23:00:20;22.80;99.90
57719;DHT22;43561;50.090;18.522;2023-06-22T23:10:22;22.50;99.90
57719;DHT22;43561;50.090;18.522;2023-06-22T23:20:24;22.50;99.90
57719;DHT22;43561;50.090;18.522;2023-06-22T23:30:26;22.40;99.90
57719;DHT22;43561;50.090;18.522;2023-06-22T23:40:28;22.20;99.90
57719;DHT22;43561;50.090;18.522;2023-06-22T23:50:29;22.10;99.90
